Thursday, February 22, 2018, 12:12 PM EST
Back to Local

KRUT, Rutland, Rutland-southern Vermont Regional Airport

Location: North Clarendon, VT, United States Lat: 43.533
Local Time: 12:12 PM EST (17:12 GMT) Lon: -72.95
Time Zone: US/Eastern Elev: 787 ft

Show me the last for .
Show Decoded

2018-02-22 10:56 METAR KRUT 221556Z AUTO 34004KT 10SM OVC060 M01/M07 A3069 RMK AO2 SLP417
                 T10111072 FZRANO $ =
2018-02-22 09:56 METAR KRUT 221456Z AUTO 00000KT 10SM OVC085 M01/M07 A3067 RMK AO2 SLP409
                 T10111067 51018 FZRANO $ =
2018-02-22 08:56 METAR KRUT 221356Z AUTO 35003KT 10SM FEW080 OVC095 M01/M07 A3067 RMK AO2 SLP407
                 T10111072 FZRANO $ =
2018-02-22 07:56 METAR KRUT 221256Z AUTO 36003KT 10SM OVC100 M01/M07 A3064 RMK AO2 SLP402
                 T10111072 FZRANO $ =
2018-02-22 06:56 METAR KRUT 221156Z AUTO 36003KT 10SM OVC095 M01/M08 A3062 RMK AO2 SLP393
                 T10111083 10028 21011 51012 FZRANO $ =
2018-02-22 05:56 METAR KRUT 221056Z AUTO 32003KT 10SM CLR M01/M09 A3061 RMK AO2 SLP389 T10111089
                 FZRANO $ =
2018-02-22 03:56 METAR KRUT 220856Z AUTO 30004KT 10SM CLR 00/M07 A3058 RMK AO2 SLP380 T00001067
                 51017 FZRANO $ =
2018-02-22 02:56 METAR KRUT 220756Z AUTO 31006KT 10SM SCT090 01/M05 A3057 RMK AO2 SLP377
                 T00111050 FZRANO $ =
2018-02-22 01:56 METAR KRUT 220656Z AUTO 33009KT 10SM OVC085 02/M04 A3055 RMK AO2 SLP370
                 T00171044 FZRANO $ =
2018-02-22 00:56 METAR KRUT 220556Z AUTO 34010KT 10SM OVC085 03/M04 A3053 RMK AO2 SLP361
                 T00281044 10089 20028 51029 $ =
2018-02-21 23:56 METAR KRUT 220456Z AUTO 34009KT 10SM OVC080 03/M06 A3051 RMK AO2 SLP356
                 T00281056 402170028 $ =
2018-02-21 22:56 METAR KRUT 220356Z AUTO 32009G15KT 10SM OVC080 04/M05 A3047 RMK AO2 SLP342
                 T00391050 $ =
2018-02-21 21:56 METAR KRUT 220256Z AUTO 33009KT 10SM OVC037 05/M04 A3044 RMK AO2 SLP331
                 T00501044 51032 $ =
2018-02-21 20:56 METAR KRUT 220156Z AUTO 33008KT 10SM OVC033 06/M03 A3042 RMK AO2 SLP324
                 T00611028 $ =
2018-02-21 19:56 METAR KRUT 220056Z AUTO 32009G14KT 10SM OVC031 08/01 A3039 RMK AO2 SLP314
                 T00780006 $ =
2018-02-21 19:39 METAR KRUT 220039Z AUTO 31010G15KT 10SM OVC031 08/01 A3038 RMK AO2 $ =
2018-02-21 18:56 METAR KRUT 212356Z AUTO 32010G19KT 10SM OVC027 09/05 A3034 RMK AO2 RAE03 SLP297
                 P0000 60000 T00940050 10217 20094 53057 $ =
2018-02-21 17:56 METAR KRUT 212256Z AUTO 35012G19KT 10SM -RA FEW024 BKN029 OVC046 11/08 A3029 RMK
                 AO2 PRESRR SLP282 P0000 T01060083 $ =
2018-02-21 17:22 METAR KRUT 212222Z AUTO 31009G19KT 10SM FEW027 BKN049 OVC065 13/08 A3025 RMK AO2
                 RAE17 PRESRR P0000 $ =
2018-02-21 16:56 METAR KRUT 212156Z AUTO 31015G23KT 6SM -RA BKN024 BKN028 OVC060 13/11 A3022 RMK
                 AO2 RAE03B36 SLP258 P0000 T01330106 $ =
2018-02-21 15:56 METAR KRUT 212056Z AUTO 29011KT 10SM -RA FEW025 OVC032 16/12 A3017 RMK AO2 WSHFT
                 2017 RAB43 SLP240 P0000 60000 T01560117 53035 $ =
2018-02-21 15:41 METAR KRUT 212041Z AUTO 31013G20KT 10SM SCT025 BKN029 OVC039 16/12 A3016 RMK AO2
                 WSHFT 2017 PRESRR $ =
2018-02-21 14:56 METAR KRUT 211956Z AUTO 25010G22KT 10SM SCT047 BKN110 21/12 A3009 RMK AO2 PK WND
                 24028/1915 SLP208 T02110122 $ =
2018-02-21 13:56 METAR KRUT 211856Z AUTO 23011G21KT 10SM SCT100 22/12 A3006 RMK AO2 SLP197
                 T02170122 $ =
2018-02-21 12:56 METAR KRUT 211756Z AUTO 22009G23KT 10SM CLR 21/12 A3006 RMK AO2 SLP200 T02110117
                 10217 20067 56021 $ =

Support USWX by starting your Amazon purchase here.